Time;durP1;ratioP1;P1;durP2;ratioP2;P2;SDS_P1;SDS_P2;PMS_P1;PMS_P2;Temp;Humidity;BMP_temperature;BMP_pressure;BME280_temperature;BME280_humidity;BME280_pressure;Samples;Min_cycle;Max_cycle;Signal;HPM_P1;HPM_P2
2022/06/27 00:01:37;;;;;;;13.60;9.77;;;;;;;;;;5076679;28;20485;-72
2022/06/27 00:04:04;;;;;;;12.43;9.75;;;;;;;;;;5114137;28;20047;-72
2022/06/27 00:06:30;;;;;;;13.35;10.10;;;;;;;;;;5114588;28;20032;-72
2022/06/27 00:08:56;;;;;;;12.55;10.48;;;;;;;;;;5113247;28;20043;-70
2022/06/27 00:11:22;;;;;;;13.00;10.65;;;;;;;;;;5110169;28;20075;-73
2022/06/27 00:13:48;;;;;;;11.50;10.25;;;;;;;;;;5108112;28;20042;-72
2022/06/27 00:16:14;;;;;;;13.00;10.93;;;;;;;;;;5112983;28;20047;-71
2022/06/27 00:18:40;;;;;;;14.23;11.05;;;;;;;;;;5113794;28;20046;-72
2022/06/27 00:21:07;;;;;;;13.30;11.90;;;;;;;;;;5109969;28;20039;-72
2022/06/27 00:23:33;;;;;;;13.55;12.13;;;;;;;;;;5111411;28;20122;-72
2022/06/27 00:25:59;;;;;;;14.85;11.90;;;;;;;;;;5111089;28;20040;-72
2022/06/27 00:28:25;;;;;;;15.13;11.85;;;;;;;;;;5111278;28;20039;-71
2022/06/27 00:30:51;;;;;;;13.95;12.45;;;;;;;;;;5106903;28;20047;-72
2022/06/27 00:33:17;;;;;;;13.63;11.73;;;;;;;;;;5106350;28;20162;-72
2022/06/27 00:35:43;;;;;;;13.98;12.55;;;;;;;;;;5104677;28;20040;-72
2022/06/27 00:38:09;;;;;;;15.63;12.40;;;;;;;;;;5105019;28;20052;-72
2022/06/27 00:40:35;;;;;;;14.75;12.20;;;;;;;;;;5103287;28;20151;-71
2022/06/27 00:43:01;;;;;;;14.13;11.27;;;;;;;;;;5105390;28;20050;-71
2022/06/27 00:45:27;;;;;;;14.02;11.65;;;;;;;;;;5103113;28;20767;-72
2022/06/27 00:47:53;;;;;;;14.52;12.30;;;;;;;;;;5101788;28;20052;-72
2022/06/27 00:50:19;;;;;;;15.30;12.10;;;;;;;;;;5105869;28;20047;-72
2022/06/27 00:52:45;;;;;;;14.38;11.73;;;;;;;;;;5107829;28;20409;-73
2022/06/27 00:55:12;;;;;;;13.18;11.88;;;;;;;;;;5104664;28;20050;-72
2022/06/27 00:57:38;;;;;;;13.38;11.93;;;;;;;;;;5074030;28;20040;-73
2022/06/27 01:00:05;;;;;;;14.75;12.73;;;;;;;;;;5104898;28;20076;-71
2022/06/27 01:02:31;;;;;;;13.63;12.15;;;;;;;;;;5103174;28;20040;-70
2022/06/27 01:04:57;;;;;;;17.33;12.05;;;;;;;;;;5112039;28;20130;-71
2022/06/27 01:07:23;;;;;;;14.68;12.63;;;;;;;;;;5114553;28;20099;-71
2022/06/27 01:09:49;;;;;;;15.38;13.77;;;;;;;;;;5110628;28;20031;-71
2022/06/27 01:12:15;;;;;;;14.82;13.38;;;;;;;;;;5109386;28;20056;-72
2022/06/27 01:14:42;;;;;;;14.55;12.82;;;;;;;;;;5107584;28;20159;-71
2022/06/27 01:17:10;;;;;;;15.00;13.27;;;;;;;;;;5114241;28;20160;-71
2022/06/27 01:19:36;;;;;;;16.45;13.63;;;;;;;;;;5111859;28;20474;-72
2022/06/27 01:22:07;;;;;;;15.68;12.48;;;;;;;;;;5073309;28;20062;-72
2022/06/27 01:24:33;;;;;;;14.50;12.93;;;;;;;;;;5110307;28;20048;-72
2022/06/27 01:26:59;;;;;;;15.38;13.77;;;;;;;;;;5110212;28;20455;-71
2022/06/27 01:29:25;;;;;;;14.63;13.23;;;;;;;;;;5109242;28;20045;-72
2022/06/27 01:31:51;;;;;;;14.98;13.32;;;;;;;;;;5108537;28;20075;-72
2022/06/27 01:34:18;;;;;;;19.80;14.45;;;;;;;;;;5112420;28;20548;-72
2022/06/27 01:36:45;;;;;;;16.40;14.68;;;;;;;;;;5113986;28;20097;-72
2022/06/27 01:39:13;;;;;;;16.48;14.68;;;;;;;;;;5107529;28;20046;-72
2022/06/27 01:41:49;;;;;;;18.35;14.77;;;;;;;;;;5111049;28;20489;-72
2022/06/27 01:44:16;;;;;;;16.83;14.23;;;;;;;;;;5096915;28;20102;-71
2022/06/27 01:46:47;;;;;;;17.40;14.82;;;;;;;;;;5110173;28;20088;-72
2022/06/27 01:49:14;;;;;;;16.50;14.57;;;;;;;;;;5111759;28;20064;-72
2022/06/27 01:51:41;;;;;;;15.13;12.35;;;;;;;;;;5112016;28;20553;-72
2022/06/27 01:54:08;;;;;;;17.48;13.23;;;;;;;;;;5111056;28;20040;-71
2022/06/27 01:56:34;;;;;;;14.20;12.10;;;;;;;;;;5108966;28;20078;-71
2022/06/27 01:59:01;;;;;;;12.38;10.85;;;;;;;;;;5091379;28;20050;-72
2022/06/27 02:01:27;;;;;;;13.00;10.88;;;;;;;;;;5112535;28;20044;-72
2022/06/27 02:03:54;;;;;;;11.95;10.70;;;;;;;;;;5110869;28;20489;-72
2022/06/27 02:06:21;;;;;;;12.90;11.00;;;;;;;;;;5110081;28;20417;-71
2022/06/27 02:08:47;;;;;;;12.20;11.00;;;;;;;;;;5107711;28;20039;-71
2022/06/27 02:11:14;;;;;;;13.30;12.00;;;;;;;;;;5110888;28;20047;-71
2022/06/27 02:13:40;;;;;;;12.63;11.38;;;;;;;;;;5110122;28;20048;-71
2022/06/27 02:16:08;;;;;;;13.15;11.77;;;;;;;;;;5089698;28;20048;-71
2022/06/27 02:18:34;;;;;;;13.70;12.43;;;;;;;;;;5112297;28;20051;-72
2022/06/27 02:21:00;;;;;;;13.63;12.18;;;;;;;;;;5109977;28;20039;-71
2022/06/27 02:23:27;;;;;;;13.55;12.15;;;;;;;;;;5110131;28;20047;-70
2022/06/27 02:25:54;;;;;;;13.98;12.57;;;;;;;;;;5109639;28;20462;-72
2022/06/27 02:28:20;;;;;;;15.55;12.75;;;;;;;;;;5109030;28;20060;-72
2022/06/27 02:30:46;;;;;;;13.85;12.32;;;;;;;;;;5109632;28;20059;-73
2022/06/27 02:33:12;;;;;;;14.40;12.90;;;;;;;;;;5112468;28;20048;-73
2022/06/27 02:35:40;;;;;;;14.75;13.25;;;;;;;;;;5110041;28;20039;-70
2022/06/27 02:38:08;;;;;;;15.20;13.60;;;;;;;;;;5111328;28;20039;-71
2022/06/27 02:40:34;;;;;;;14.95;13.40;;;;;;;;;;5112273;28;20036;-71
2022/06/27 02:43:00;;;;;;;14.77;13.38;;;;;;;;;;5110304;28;20046;-71
2022/06/27 02:45:30;;;;;;;14.82;13.43;;;;;;;;;;5094124;28;20040;-71
2022/06/27 02:47:58;;;;;;;15.15;13.65;;;;;;;;;;5107447;28;20060;-71
2022/06/27 02:50:26;;;;;;;15.85;13.75;;;;;;;;;;5111154;28;20112;-71
2022/06/27 02:52:55;;;;;;;15.25;13.75;;;;;;;;;;5112328;28;20039;-71
2022/06/27 02:55:25;;;;;;;15.93;14.32;;;;;;;;;;5112685;28;20047;-71
2022/06/27 02:57:53;;;;;;;14.45;12.40;;;;;;;;;;5114103;28;20057;-70
2022/06/27 03:00:20;;;;;;;13.50;12.13;;;;;;;;;;5094851;28;20040;-71
2022/06/27 03:02:46;;;;;;;14.23;12.55;;;;;;;;;;5115055;28;20036;-71
2022/06/27 03:05:12;;;;;;;16.17;14.48;;;;;;;;;;5116298;28;20036;-71
2022/06/27 03:07:39;;;;;;;14.85;13.45;;;;;;;;;;5105914;28;20043;-71
2022/06/27 03:10:05;;;;;;;12.30;9.88;;;;;;;;;;5112810;28;20035;-71
2022/06/27 03:12:31;;;;;;;9.25;7.28;;;;;;;;;;5115019;28;20492;-71
2022/06/27 03:14:57;;;;;;;8.50;6.45;;;;;;;;;;5111425;28;20086;-71
2022/06/27 03:17:23;;;;;;;7.78;5.93;;;;;;;;;;5114886;28;20039;-71
2022/06/27 03:19:50;;;;;;;8.15;6.43;;;;;;;;;;5114592;28;20504;-71
2022/06/27 03:22:16;;;;;;;7.20;5.50;;;;;;;;;;5109156;28;20047;-70
2022/06/27 03:24:42;;;;;;;7.18;5.45;;;;;;;;;;5096845;28;20067;-71
2022/06/27 03:27:10;;;;;;;7.00;5.07;;;;;;;;;;5112075;28;20741;-71
2022/06/27 03:29:36;;;;;;;7.40;5.20;;;;;;;;;;5113668;28;20126;-72
2022/06/27 03:32:02;;;;;;;7.60;4.88;;;;;;;;;;5114661;28;20035;-72
2022/06/27 03:34:29;;;;;;;7.70;5.55;;;;;;;;;;5114537;28;20069;-71
2022/06/27 03:36:55;;;;;;;6.25;4.70;;;;;;;;;;5115236;28;20350;-72
2022/06/27 03:39:21;;;;;;;5.85;4.20;;;;;;;;;;5114650;28;20120;-72
2022/06/27 03:41:48;;;;;;;8.27;4.70;;;;;;;;;;5113682;28;20036;-72
2022/06/27 03:44:14;;;;;;;7.00;4.28;;;;;;;;;;5114213;28;20123;-72
2022/06/27 03:46:40;;;;;;;6.10;4.82;;;;;;;;;;5113778;28;20126;-71
2022/06/27 03:51:51;;;;;;;6.85;4.93;;;;;;;;;;5114597;28;20043;-72
2022/06/27 03:54:17;;;;;;;7.38;4.82;;;;;;;;;;5112005;28;20051;-72
2022/06/27 03:56:43;;;;;;;6.30;5.00;;;;;;;;;;5110452;28;20039;-71
2022/06/27 03:59:10;;;;;;;6.93;5.32;;;;;;;;;;5094539;28;20047;-71
2022/06/27 04:01:36;;;;;;;6.65;4.28;;;;;;;;;;5095441;28;20047;-71
2022/06/27 04:04:02;;;;;;;5.30;4.00;;;;;;;;;;5114382;28;20048;-71
2022/06/27 04:06:28;;;;;;;6.07;3.38;;;;;;;;;;5109632;28;20101;-71
2022/06/27 04:08:54;;;;;;;5.75;3.40;;;;;;;;;;5114918;28;20039;-72
2022/06/27 04:11:21;;;;;;;6.35;3.60;;;;;;;;;;5113284;28;20470;-71
2022/06/27 04:13:47;;;;;;;5.35;3.33;;;;;;;;;;5109180;28;20055;-71
2022/06/27 04:16:13;;;;;;;7.93;3.08;;;;;;;;;;5113759;28;20083;-71
2022/06/27 04:18:39;;;;;;;8.23;3.10;;;;;;;;;;5112303;28;20074;-71
2022/06/27 04:21:05;;;;;;;6.03;2.80;;;;;;;;;;5110995;28;20055;-72
2022/06/27 04:23:31;;;;;;;6.53;3.33;;;;;;;;;;5092221;28;20047;-71
2022/06/27 04:25:57;;;;;;;5.88;3.10;;;;;;;;;;5108549;28;20051;-72
2022/06/27 04:28:23;;;;;;;5.55;3.20;;;;;;;;;;5111448;28;20036;-72
2022/06/27 04:30:49;;;;;;;5.50;3.20;;;;;;;;;;5107157;28;20047;-72
2022/06/27 04:33:15;;;;;;;5.72;2.85;;;;;;;;;;5109818;28;20043;-72
2022/06/27 04:35:46;;;;;;;5.60;3.17;;;;;;;;;;5112199;28;20080;-71
2022/06/27 04:38:12;;;;;;;5.50;3.30;;;;;;;;;;5112849;28;20051;-71
2022/06/27 04:40:38;;;;;;;5.90;3.25;;;;;;;;;;5114292;28;20043;-71
2022/06/27 04:43:04;;;;;;;5.45;3.30;;;;;;;;;;5112099;28;20504;-71
2022/06/27 04:45:33;;;;;;;5.57;2.80;;;;;;;;;;5111814;28;20100;-72
2022/06/27 04:48:00;;;;;;;4.82;2.80;;;;;;;;;;5110535;28;20047;-70
2022/06/27 04:50:26;;;;;;;4.63;2.65;;;;;;;;;;5112403;28;20565;-70
2022/06/27 04:52:52;;;;;;;5.50;2.90;;;;;;;;;;5094620;28;20043;-70
2022/06/27 04:55:19;;;;;;;5.32;2.70;;;;;;;;;;5113520;28;20097;-70
2022/06/27 04:57:46;;;;;;;6.55;2.80;;;;;;;;;;5110397;28;20490;-70
2022/06/27 05:00:13;;;;;;;5.10;2.72;;;;;;;;;;5112698;28;20035;-71
2022/06/27 05:02:39;;;;;;;5.38;2.90;;;;;;;;;;5092532;28;20036;-71
2022/06/27 05:05:06;;;;;;;5.63;2.83;;;;;;;;;;5096654;28;20439;-71
2022/06/27 05:07:32;;;;;;;7.57;3.10;;;;;;;;;;5111839;28;20047;-71
2022/06/27 05:09:58;;;;;;;7.25;3.15;;;;;;;;;;5113467;28;20040;-71
2022/06/27 05:12:27;;;;;;;8.38;2.92;;;;;;;;;;5107920;28;20082;-71
2022/06/27 05:14:54;;;;;;;4.63;2.60;;;;;;;;;;5113091;28;20138;-70
2022/06/27 05:17:21;;;;;;;5.78;2.50;;;;;;;;;;5111464;28;20043;-70
2022/06/27 05:19:47;;;;;;;5.97;2.85;;;;;;;;;;5113036;28;20067;-71
2022/06/27 05:22:13;;;;;;;4.95;2.80;;;;;;;;;;5111277;28;20425;-70
2022/06/27 05:24:40;;;;;;;5.45;2.90;;;;;;;;;;5111568;28;20180;-70
2022/06/27 05:27:06;;;;;;;6.35;3.00;;;;;;;;;;5110210;28;20104;-70
2022/06/27 05:29:32;;;;;;;4.93;2.80;;;;;;;;;;5113661;28;20047;-70
2022/06/27 05:31:59;;;;;;;4.82;2.72;;;;;;;;;;5105554;28;20047;-69
2022/06/27 05:34:25;;;;;;;5.40;2.97;;;;;;;;;;5103812;28;20160;-70
2022/06/27 05:36:51;;;;;;;6.47;3.00;;;;;;;;;;5094924;28;20052;-70
2022/06/27 05:39:17;;;;;;;4.63;3.03;;;;;;;;;;5102209;28;20115;-70
2022/06/27 05:41:45;;;;;;;4.72;2.90;;;;;;;;;;5105655;28;20088;-71
2022/06/27 05:44:13;;;;;;;5.10;2.92;;;;;;;;;;5113227;28;20119;-71
2022/06/27 05:46:40;;;;;;;4.72;2.92;;;;;;;;;;5112682;28;20128;-70
2022/06/27 05:49:06;;;;;;;5.07;2.70;;;;;;;;;;5111834;28;20063;-71
2022/06/27 05:51:33;;;;;;;4.65;2.47;;;;;;;;;;5111830;28;20048;-71
2022/06/27 05:54:01;;;;;;;5.47;2.78;;;;;;;;;;5111789;28;20051;-70
2022/06/27 05:56:28;;;;;;;4.93;2.53;;;;;;;;;;5112362;28;20052;-71
2022/06/27 05:58:55;;;;;;;5.68;2.70;;;;;;;;;;5113090;28;20043;-71
2022/06/27 06:01:22;;;;;;;5.78;2.67;;;;;;;;;;5085067;28;20043;-71
2022/06/27 06:03:48;;;;;;;5.13;2.70;;;;;;;;;;5106601;28;20054;-71
2022/06/27 06:06:16;;;;;;;5.35;2.53;;;;;;;;;;5104266;28;20096;-70
2022/06/27 06:08:43;;;;;;;5.38;2.60;;;;;;;;;;5111813;28;20096;-71
2022/06/27 06:11:09;;;;;;;5.15;2.60;;;;;;;;;;5110717;28;20040;-71
2022/06/27 06:13:36;;;;;;;5.18;2.53;;;;;;;;;;5108292;28;20043;-71
2022/06/27 06:16:06;;;;;;;4.22;2.55;;;;;;;;;;5093886;28;20043;-71
2022/06/27 06:18:33;;;;;;;4.32;2.55;;;;;;;;;;5110645;28;20035;-72
2022/06/27 06:20:59;;;;;;;4.32;2.35;;;;;;;;;;5104788;28;20077;-71
2022/06/27 06:23:25;;;;;;;5.38;2.65;;;;;;;;;;5111724;28;20036;-72
2022/06/27 06:25:52;;;;;;;5.30;3.05;;;;;;;;;;5111940;28;20421;-71
2022/06/27 06:28:18;;;;;;;7.78;2.88;;;;;;;;;;5112798;28;20070;-71
2022/06/27 06:30:44;;;;;;;4.40;2.60;;;;;;;;;;5110924;28;20028;-72
2022/06/27 06:33:11;;;;;;;5.50;2.97;;;;;;;;;;5112732;28;20040;-71
2022/06/27 06:35:37;;;;;;;5.85;2.95;;;;;;;;;;5114007;28;20051;-71
2022/06/27 06:38:04;;;;;;;5.32;2.55;;;;;;;;;;5115380;28;20055;-72
2022/06/27 06:40:31;;;;;;;4.75;2.85;;;;;;;;;;5084612;28;20052;-72
2022/06/27 06:42:59;;;;;;;5.10;2.85;;;;;;;;;;5109480;28;20058;-71
2022/06/27 06:45:25;;;;;;;5.40;3.08;;;;;;;;;;5115398;28;20046;-71
2022/06/27 06:47:52;;;;;;;4.90;2.67;;;;;;;;;;5106972;28;20091;-71
2022/06/27 06:50:21;;;;;;;4.90;2.67;;;;;;;;;;5111921;28;20134;-70
2022/06/27 06:52:51;;;;;;;5.78;3.72;;;;;;;;;;5116126;28;20044;-72
2022/06/27 06:55:20;;;;;;;7.88;4.72;;;;;;;;;;5109068;28;20046;-71
2022/06/27 06:57:46;;;;;;;7.45;4.88;;;;;;;;;;5117795;27;20109;-71
2022/06/27 07:00:12;;;;;;;6.40;3.60;;;;;;;;;;5115839;28;20048;-71
2022/06/27 07:02:38;;;;;;;6.18;4.20;;;;;;;;;;5077353;28;20485;-71
2022/06/27 07:05:08;;;;;;;6.15;4.20;;;;;;;;;;5112501;28;20036;-71
2022/06/27 07:07:34;;;;;;;6.25;4.75;;;;;;;;;;5104253;28;20097;-71
2022/06/27 07:10:00;;;;;;;7.50;5.38;;;;;;;;;;5114355;28;20485;-71
2022/06/27 07:12:29;;;;;;;6.55;4.70;;;;;;;;;;5112203;28;20071;-71
2022/06/27 07:14:56;;;;;;;25.08;19.48;;;;;;;;;;5110254;28;20093;-71
2022/06/27 07:17:26;;;;;;;14.30;11.82;;;;;;;;;;5111227;28;20045;-70
2022/06/27 07:19:53;;;;;;;14.50;10.43;;;;;;;;;;5115626;28;20043;-70
2022/06/27 07:22:20;;;;;;;13.93;10.32;;;;;;;;;;5096046;28;20101;-71
2022/06/27 07:24:47;;;;;;;12.65;10.00;;;;;;;;;;5111695;28;20031;-71
2022/06/27 07:27:15;;;;;;;9.90;6.43;;;;;;;;;;5115768;28;20044;-71
2022/06/27 07:29:41;;;;;;;8.98;7.10;;;;;;;;;;5095757;28;20442;-70
2022/06/27 07:32:08;;;;;;;7.88;5.60;;;;;;;;;;5116001;28;20052;-70
2022/06/27 07:34:34;;;;;;;6.72;4.88;;;;;;;;;;5108713;28;20177;-71
2022/06/27 07:37:01;;;;;;;5.72;4.15;;;;;;;;;;5109338;28;20048;-71
2022/06/27 07:39:27;;;;;;;7.15;3.75;;;;;;;;;;5114187;28;20175;-71
2022/06/27 07:41:54;;;;;;;5.68;3.58;;;;;;;;;;5113186;28;20039;-71
2022/06/27 07:44:22;;;;;;;6.55;3.70;;;;;;;;;;5113635;28;20043;-70
2022/06/27 07:46:48;;;;;;;6.72;3.83;;;;;;;;;;5114791;28;20093;-71
2022/06/27 07:49:14;;;;;;;5.85;3.97;;;;;;;;;;5109877;27;20051;-71
2022/06/27 07:51:41;;;;;;;5.07;3.40;;;;;;;;;;5112628;28;20052;-72
2022/06/27 07:54:10;;;;;;;6.28;3.72;;;;;;;;;;5091427;28;20052;-71
2022/06/27 07:56:36;;;;;;;5.32;3.38;;;;;;;;;;5113643;28;20079;-71
2022/06/27 07:59:05;;;;;;;6.90;3.83;;;;;;;;;;5112813;28;20054;-71
2022/06/27 08:01:31;;;;;;;7.72;4.50;;;;;;;;;;5101459;28;20493;-72
2022/06/27 08:03:57;;;;;;;7.03;4.53;;;;;;;;;;5112773;28;20451;-71
2022/06/27 08:06:26;;;;;;;10.98;4.75;;;;;;;;;;5112559;28;20046;-71
2022/06/27 08:08:54;;;;;;;7.10;4.90;;;;;;;;;;5113154;28;20069;-71
2022/06/27 08:11:23;;;;;;;5.68;4.63;;;;;;;;;;5113901;28;20044;-71
2022/06/27 08:13:50;;;;;;;7.03;4.75;;;;;;;;;;5114695;28;20078;-72
2022/06/27 08:16:18;;;;;;;6.72;5.10;;;;;;;;;;5112950;28;20046;-71
2022/06/27 08:18:47;;;;;;;6.95;5.38;;;;;;;;;;5113244;28;20039;-70
2022/06/27 08:21:14;;;;;;;8.30;5.80;;;;;;;;;;5103101;28;20123;-71
2022/06/27 08:23:40;;;;;;;7.65;5.28;;;;;;;;;;5121246;27;20043;-70
2022/06/27 08:26:07;;;;;;;7.78;5.00;;;;;;;;;;5114488;28;20043;-71
2022/06/27 08:28:35;;;;;;;7.57;5.22;;;;;;;;;;5115169;28;20043;-71
2022/06/27 08:31:01;;;;;;;6.93;5.65;;;;;;;;;;5124846;27;20122;-71
2022/06/27 08:33:28;;;;;;;7.47;5.97;;;;;;;;;;5117342;27;20561;-71
2022/06/27 08:35:56;;;;;;;7.03;6.32;;;;;;;;;;5111247;28;20440;-71
2022/06/27 08:38:22;;;;;;;7.22;5.88;;;;;;;;;;5111955;28;20078;-70
2022/06/27 08:40:50;;;;;;;7.55;5.65;;;;;;;;;;5112560;28;20486;-70
2022/06/27 08:43:17;;;;;;;7.43;5.90;;;;;;;;;;5115173;28;20091;-71
2022/06/27 08:45:55;;;;;;;7.55;6.03;;;;;;;;;;5111283;28;20035;-70
2022/06/27 08:48:22;;;;;;;7.20;6.35;;;;;;;;;;5109398;28;20051;-71
2022/06/27 08:50:50;;;;;;;6.88;5.60;;;;;;;;;;5110931;28;20035;-70
2022/06/27 08:53:17;;;;;;;6.95;5.65;;;;;;;;;;5105330;28;20054;-70
2022/06/27 08:55:47;;;;;;;6.80;6.10;;;;;;;;;;5109615;28;20556;-70
2022/06/27 08:58:14;;;;;;;7.57;5.78;;;;;;;;;;5113762;28;20043;-75
2022/06/27 09:00:41;;;;;;;6.68;5.60;;;;;;;;;;5113646;28;20139;-72
2022/06/27 09:03:10;;;;;;;6.55;5.60;;;;;;;;;;5117153;28;20508;-75
2022/06/27 09:05:37;;;;;;;7.60;6.45;;;;;;;;;;5097966;28;20051;-73
2022/06/27 09:08:07;;;;;;;7.53;6.05;;;;;;;;;;5095980;28;20050;-73
2022/06/27 09:10:39;;;;;;;8.07;6.22;;;;;;;;;;5114985;28;20766;-72
2022/06/27 09:13:13;;;;;;;6.93;5.35;;;;;;;;;;5094167;28;20454;-72
2022/06/27 09:15:42;;;;;;;7.55;6.10;;;;;;;;;;5113918;28;20093;-70
2022/06/27 09:18:09;;;;;;;6.68;5.95;;;;;;;;;;5112316;28;20073;-71
2022/06/27 09:20:58;;;;;;;7.88;6.30;;;;;;;;;;5109817;28;20043;-71
2022/06/27 09:23:43;;;;;;;7.15;6.45;;;;;;;;;;5098975;28;20059;-71
2022/06/27 09:26:19;;;;;;;6.85;6.00;;;;;;;;;;5094635;28;20107;-70
2022/06/27 09:28:51;;;;;;;8.65;7.28;;;;;;;;;;5111331;28;20048;-70
2022/06/27 09:31:37;;;;;;;8.40;7.22;;;;;;;;;;5112249;28;20047;-71
2022/06/27 09:34:12;;;;;;;8.05;6.90;;;;;;;;;;5100428;28;20044;-70
2022/06/27 09:36:42;;;;;;;9.57;6.30;;;;;;;;;;5110294;28;20055;-71
2022/06/27 09:39:16;;;;;;;7.30;6.15;;;;;;;;;;5107715;27;20385;-71
2022/06/27 09:41:45;;;;;;;8.02;6.18;;;;;;;;;;5114165;27;20031;-70
2022/06/27 09:44:14;;;;;;;7.72;6.35;;;;;;;;;;5105564;28;20040;-70
2022/06/27 09:46:44;;;;;;;7.90;6.50;;;;;;;;;;5112196;28;20566;-70
2022/06/27 09:49:15;;;;;;;9.90;6.90;;;;;;;;;;5111975;28;20104;-71
2022/06/27 09:51:41;;;;;;;8.45;6.75;;;;;;;;;;5111960;27;20092;-71
2022/06/27 09:54:11;;;;;;;9.07;6.47;;;;;;;;;;5112411;27;20035;-72
2022/06/27 09:56:42;;;;;;;10.35;6.47;;;;;;;;;;5094839;28;20075;-71
2022/06/27 09:59:11;;;;;;;9.30;7.40;;;;;;;;;;5110192;28;20528;-71
2022/06/27 10:01:38;;;;;;;7.57;6.45;;;;;;;;;;5112113;28;20083;-71
2022/06/27 10:04:05;;;;;;;9.15;7.75;;;;;;;;;;5111425;28;20394;-70
2022/06/27 10:06:31;;;;;;;7.55;6.63;;;;;;;;;;5111216;28;20040;-70
2022/06/27 10:08:58;;;;;;;8.32;7.10;;;;;;;;;;5103728;28;20506;-69
2022/06/27 10:11:24;;;;;;;6.95;6.03;;;;;;;;;;5105267;28;20047;-69
2022/06/27 10:14:11;;;;;;;7.82;7.03;;;;;;;;;;5098685;28;20593;-70
2022/06/27 10:16:50;;;;;;;7.72;6.93;;;;;;;;;;5098617;28;20554;-69
2022/06/27 10:19:16;;;;;;;7.55;6.75;;;;;;;;;;5106844;28;20490;-70
2022/06/27 10:21:42;;;;;;;6.18;5.30;;;;;;;;;;5108911;28;20039;-70
2022/06/27 10:24:31;;;;;;;8.10;6.10;;;;;;;;;;5103906;28;20050;-70
2022/06/27 10:26:59;;;;;;;9.27;6.43;;;;;;;;;;5110625;28;20044;-70
2022/06/27 10:29:39;;;;;;;7.43;5.78;;;;;;;;;;5112419;28;20067;-70
2022/06/27 10:32:07;;;;;;;7.60;5.97;;;;;;;;;;5112071;28;20123;-70
2022/06/27 10:34:48;;;;;;;7.28;5.50;;;;;;;;;;5110344;28;20039;-70
2022/06/27 10:37:20;;;;;;;6.63;5.20;;;;;;;;;;5098618;28;20542;-71
2022/06/27 10:39:46;;;;;;;7.70;5.43;;;;;;;;;;5097562;28;20061;-70
2022/06/27 10:42:31;;;;;;;6.80;5.57;;;;;;;;;;5093143;28;20074;-71
2022/06/27 10:45:29;;;;;;;6.60;5.25;;;;;;;;;;5111062;28;20092;-71
2022/06/27 10:47:59;;;;;;;6.82;5.50;;;;;;;;;;5052358;28;20059;-71
2022/06/27 10:50:26;;;;;;;6.78;5.57;;;;;;;;;;5112279;28;20043;-71
2022/06/27 10:53:12;;;;;;;7.75;5.30;;;;;;;;;;5113104;28;20130;-70
2022/06/27 10:55:39;;;;;;;7.18;5.65;;;;;;;;;;5105658;28;20076;-71
2022/06/27 10:58:18;;;;;;;7.35;5.55;;;;;;;;;;5092179;28;20056;-71
2022/06/27 11:00:48;;;;;;;6.35;5.38;;;;;;;;;;5084349;28;20085;-70
2022/06/27 11:03:22;;;;;;;7.53;6.38;;;;;;;;;;5110787;28;20548;-70
2022/06/27 11:05:55;;;;;;;6.75;5.70;;;;;;;;;;5107275;28;20043;-71
2022/06/27 11:08:22;;;;;;;7.18;5.43;;;;;;;;;;5103685;28;20040;-70
2022/06/27 11:10:48;;;;;;;6.57;5.05;;;;;;;;;;5104075;28;20612;-71
2022/06/27 11:13:34;;;;;;;7.65;4.85;;;;;;;;;;5107790;28;20055;-70
2022/06/27 11:16:01;;;;;;;8.32;4.75;;;;;;;;;;5111380;28;20039;-70
2022/06/27 11:18:27;;;;;;;7.07;5.22;;;;;;;;;;5112346;28;20051;-71
2022/06/27 11:20:57;;;;;;;8.07;6.00;;;;;;;;;;5111908;27;20044;-71
2022/06/27 11:23:23;;;;;;;7.00;5.20;;;;;;;;;;5112985;27;20115;-72
2022/06/27 11:25:50;;;;;;;7.90;4.70;;;;;;;;;;5110661;28;20081;-72
2022/06/27 11:33:48;;;;;;;7.47;4.22;;;;;;;;;;5115571;28;20063;-72
2022/06/27 11:36:15;;;;;;;7.70;4.03;;;;;;;;;;5109495;28;20093;-72
2022/06/27 11:38:42;;;;;;;6.53;3.85;;;;;;;;;;5112762;28;20402;-73
2022/06/27 11:41:09;;;;;;;7.43;3.63;;;;;;;;;;5107279;28;20519;-72
2022/06/27 11:43:49;;;;;;;6.22;3.47;;;;;;;;;;5107232;28;20083;-72
2022/06/27 11:46:33;;;;;;;6.78;4.00;;;;;;;;;;5112836;28;20039;-72
2022/06/27 11:49:08;;;;;;;7.78;3.78;;;;;;;;;;5112291;27;20442;-72
2022/06/27 11:51:39;;;;;;;5.30;3.60;;;;;;;;;;5115934;28;20073;-72
2022/06/27 11:54:07;;;;;;;5.65;4.05;;;;;;;;;;5114979;28;20495;-71
2022/06/27 11:56:35;;;;;;;6.05;3.80;;;;;;;;;;5079425;28;20134;-72
2022/06/27 11:59:01;;;;;;;5.30;3.30;;;;;;;;;;5115929;28;20046;-72
2022/06/27 12:01:27;;;;;;;5.38;3.60;;;;;;;;;;5096423;28;20058;-72
2022/06/27 12:04:09;;;;;;;5.65;3.25;;;;;;;;;;5112806;28;20379;-72
2022/06/27 12:06:55;;;;;;;6.00;3.10;;;;;;;;;;5113411;28;20374;-72
2022/06/27 12:09:22;;;;;;;7.88;3.15;;;;;;;;;;5112649;28;20082;-72
2022/06/27 12:11:51;;;;;;;5.35;3.20;;;;;;;;;;5112016;28;20497;-72
2022/06/27 12:14:17;;;;;;;4.97;3.40;;;;;;;;;;5115847;27;20130;-72
2022/06/27 12:16:48;;;;;;;7.05;3.58;;;;;;;;;;5093567;28;20596;-71
2022/06/27 12:19:14;;;;;;;4.80;3.58;;;;;;;;;;5094406;28;20046;-71
2022/06/27 12:21:41;;;;;;;5.82;3.45;;;;;;;;;;5114745;28;20109;-72
2022/06/27 12:24:07;;;;;;;5.45;3.60;;;;;;;;;;5114922;28;20055;-71
2022/06/27 12:26:34;;;;;;;5.97;4.18;;;;;;;;;;5096963;28;20051;-71
2022/06/27 12:29:00;;;;;;;6.22;4.18;;;;;;;;;;5119377;27;20036;-70
2022/06/27 12:31:26;;;;;;;7.03;3.90;;;;;;;;;;5124171;27;20529;-70
2022/06/27 12:33:52;;;;;;;6.50;4.15;;;;;;;;;;5111292;28;20036;-72
2022/06/27 12:36:18;;;;;;;5.88;3.80;;;;;;;;;;5115332;28;20073;-70
2022/06/27 12:38:44;;;;;;;5.95;3.90;;;;;;;;;;5113158;28;20047;-71
2022/06/27 12:41:15;;;;;;;5.68;3.60;;;;;;;;;;5103392;27;20124;-71
2022/06/27 12:43:41;;;;;;;5.63;3.67;;;;;;;;;;5109741;28;20047;-71
2022/06/27 12:46:08;;;;;;;7.00;3.13;;;;;;;;;;5111888;28;20466;-73
2022/06/27 12:48:34;;;;;;;6.90;3.58;;;;;;;;;;5113593;28;20049;-72
2022/06/27 12:51:00;;;;;;;5.57;3.70;;;;;;;;;;5111556;28;20570;-71
2022/06/27 12:53:26;;;;;;;5.18;3.30;;;;;;;;;;5089445;28;20561;-71
2022/06/27 12:55:53;;;;;;;5.53;3.05;;;;;;;;;;5094693;27;20032;-71
2022/06/27 12:58:20;;;;;;;5.57;3.40;;;;;;;;;;5129081;27;20086;-71
2022/06/27 13:00:46;;;;;;;6.43;3.28;;;;;;;;;;5076710;28;20051;-70
2022/06/27 13:03:13;;;;;;;5.90;3.85;;;;;;;;;;5114829;28;20043;-71
2022/06/27 13:05:39;;;;;;;6.05;3.55;;;;;;;;;;5102677;28;20039;-71
2022/06/27 13:08:06;;;;;;;6.50;3.80;;;;;;;;;;5112951;28;20141;-71
2022/06/27 13:10:32;;;;;;;6.03;4.13;;;;;;;;;;5095369;28;20047;-71
2022/06/27 13:12:58;;;;;;;6.75;3.40;;;;;;;;;;5127244;27;20051;-71
2022/06/27 13:15:24;;;;;;;6.63;3.78;;;;;;;;;;5111610;27;20040;-71
2022/06/27 13:17:50;;;;;;;5.65;3.63;;;;;;;;;;5111657;28;20054;-72
2022/06/27 13:20:16;;;;;;;6.30;4.13;;;;;;;;;;5113892;28;20182;-71
2022/06/27 13:22:42;;;;;;;6.22;3.58;;;;;;;;;;5093454;28;20536;-71
2022/06/27 13:25:10;;;;;;;6.63;3.90;;;;;;;;;;5114004;28;20069;-70
2022/06/27 13:27:36;;;;;;;7.18;3.22;;;;;;;;;;5118892;27;20069;-72
2022/06/27 13:30:03;;;;;;;5.20;2.83;;;;;;;;;;5095086;28;20043;-72
2022/06/27 13:32:29;;;;;;;5.30;3.17;;;;;;;;;;5113990;28;20047;-71
2022/06/27 13:34:55;;;;;;;5.25;3.30;;;;;;;;;;5092634;28;20047;-72
2022/06/27 13:37:21;;;;;;;6.28;2.97;;;;;;;;;;5114013;28;20516;-71
2022/06/27 13:39:47;;;;;;;6.35;3.00;;;;;;;;;;5112257;28;20043;-71
2022/06/27 13:42:13;;;;;;;5.65;2.90;;;;;;;;;;5112686;28;20063;-71
2022/06/27 13:44:39;;;;;;;6.03;2.88;;;;;;;;;;5100220;27;20039;-71
2022/06/27 13:47:05;;;;;;;5.32;2.90;;;;;;;;;;5110295;28;20047;-72
2022/06/27 13:49:31;;;;;;;5.88;2.95;;;;;;;;;;5113281;28;20056;-71
2022/06/27 13:51:57;;;;;;;6.55;2.75;;;;;;;;;;5113606;28;20035;-72
2022/06/27 13:54:24;;;;;;;5.22;3.00;;;;;;;;;;5113469;28;20525;-71
2022/06/27 13:56:50;;;;;;;5.45;2.92;;;;;;;;;;5111407;28;20040;-71
2022/06/27 13:59:16;;;;;;;5.32;2.88;;;;;;;;;;5094039;28;20093;-71
2022/06/27 14:01:43;;;;;;;4.38;2.50;;;;;;;;;;5107003;27;20036;-71
2022/06/27 14:04:09;;;;;;;6.22;3.15;;;;;;;;;;5077633;28;20040;-71
2022/06/27 14:09:20;;;;;;;5.13;2.80;;;;;;;;;;5113229;28;20044;-71
2022/06/27 14:11:46;;;;;;;4.85;2.60;;;;;;;;;;5111125;28;20430;-71
2022/06/27 14:14:12;;;;;;;5.00;2.50;;;;;;;;;;5111440;28;20406;-71
2022/06/27 14:16:38;;;;;;;4.90;2.63;;;;;;;;;;5111028;28;20031;-71
2022/06/27 14:19:04;;;;;;;6.00;2.80;;;;;;;;;;5112609;28;20394;-72
2022/06/27 14:21:31;;;;;;;7.28;3.15;;;;;;;;;;5113296;28;20044;-72
2022/06/27 14:23:57;;;;;;;6.50;3.42;;;;;;;;;;5075467;28;20047;-71
2022/06/27 14:26:23;;;;;;;6.60;3.33;;;;;;;;;;5108972;28;20084;-71
2022/06/27 14:28:49;;;;;;;5.90;3.78;;;;;;;;;;5109730;28;20039;-70
2022/06/27 14:31:15;;;;;;;6.20;3.60;;;;;;;;;;5108737;28;20039;-71
2022/06/27 14:33:42;;;;;;;5.95;3.15;;;;;;;;;;5111425;28;20047;-71
2022/06/27 14:36:10;;;;;;;6.25;3.13;;;;;;;;;;5095918;28;20101;-71
2022/06/27 14:38:37;;;;;;;5.18;2.78;;;;;;;;;;5077212;28;20126;-71
2022/06/27 14:41:04;;;;;;;5.70;3.58;;;;;;;;;;5111924;28;20048;-71
2022/06/27 14:43:30;;;;;;;6.10;2.92;;;;;;;;;;5105840;28;20467;-71
2022/06/27 14:45:56;;;;;;;5.25;3.20;;;;;;;;;;5110825;28;20048;-71
2022/06/27 14:48:22;;;;;;;5.05;3.15;;;;;;;;;;5110399;28;20087;-71
2022/06/27 14:50:48;;;;;;;7.00;3.67;;;;;;;;;;5107880;28;20398;-71